sensor_id;sensor_type;location;lat;lon;timestamp;temperature;humidity
61398;DHT22;47267;48.130;-2.040;2022-10-15T00:00:39;20.30;69.30
61398;DHT22;47267;48.130;-2.040;2022-10-15T00:03:06;20.30;69.30
61398;DHT22;47267;48.130;-2.040;2022-10-15T00:05:32;20.30;69.30
61398;DHT22;47267;48.130;-2.040;2022-10-15T00:07:57;20.30;69.30
61398;DHT22;47267;48.130;-2.040;2022-10-15T00:10:23;20.30;69.40
61398;DHT22;47267;48.130;-2.040;2022-10-15T00:12:49;20.30;69.40
61398;DHT22;47267;48.130;-2.040;2022-10-15T00:15:14;20.30;69.40
61398;DHT22;47267;48.130;-2.040;2022-10-15T00:17:40;20.30;69.40
61398;DHT22;47267;48.130;-2.040;2022-10-15T00:20:08;20.30;69.40
61398;DHT22;47267;48.130;-2.040;2022-10-15T00:22:35;20.30;69.40
61398;DHT22;47267;48.130;-2.040;2022-10-15T00:25:01;20.30;69.40
61398;DHT22;47267;48.130;-2.040;2022-10-15T00:27:27;20.30;69.40
61398;DHT22;47267;48.130;-2.040;2022-10-15T00:29:52;20.30;69.40
61398;DHT22;47267;48.130;-2.040;2022-10-15T00:32:18;20.30;69.50
61398;DHT22;47267;48.130;-2.040;2022-10-15T00:34:44;20.30;69.50
61398;DHT22;47267;48.130;-2.040;2022-10-15T00:37:10;20.30;69.50
61398;DHT22;47267;48.130;-2.040;2022-10-15T00:39:36;20.30;69.50
61398;DHT22;47267;48.130;-2.040;2022-10-15T00:42:02;20.30;69.50
61398;DHT22;47267;48.130;-2.040;2022-10-15T00:47:25;20.30;69.50
61398;DHT22;47267;48.130;-2.040;2022-10-15T00:55:29;20.30;69.50
61398;DHT22;47267;48.130;-2.040;2022-10-15T00:57:58;20.30;69.50
61398;DHT22;47267;48.130;-2.040;2022-10-15T01:00:26;20.30;69.50
61398;DHT22;47267;48.130;-2.040;2022-10-15T01:02:51;20.30;70.20
61398;DHT22;47267;48.130;-2.040;2022-10-15T01:05:18;20.30;69.60
61398;DHT22;47267;48.130;-2.040;2022-10-15T01:07:44;20.20;69.50
61398;DHT22;47267;48.130;-2.040;2022-10-15T01:10:10;20.20;69.50
61398;DHT22;47267;48.130;-2.040;2022-10-15T01:18:21;20.20;69.50
61398;DHT22;47267;48.130;-2.040;2022-10-15T01:31:59;20.20;69.60
61398;DHT22;47267;48.130;-2.040;2022-10-15T01:34:59;20.20;69.60
61398;DHT22;47267;48.130;-2.040;2022-10-15T01:43:04;20.20;69.60
61398;DHT22;47267;48.130;-2.040;2022-10-15T01:45:55;20.20;69.60
61398;DHT22;47267;48.130;-2.040;2022-10-15T01:48:25;20.20;69.60
61398;DHT22;47267;48.130;-2.040;2022-10-15T01:50:53;20.20;69.70
61398;DHT22;47267;48.130;-2.040;2022-10-15T01:53:23;20.20;69.70
61398;DHT22;47267;48.130;-2.040;2022-10-15T01:55:53;20.20;69.70
61398;DHT22;47267;48.130;-2.040;2022-10-15T01:58:20;20.20;69.70
61398;DHT22;47267;48.130;-2.040;2022-10-15T02:00:46;20.20;69.70
61398;DHT22;47267;48.130;-2.040;2022-10-15T02:03:12;20.20;69.70
61398;DHT22;47267;48.130;-2.040;2022-10-15T02:05:45;20.20;69.70
61398;DHT22;47267;48.130;-2.040;2022-10-15T02:13:40;20.20;69.70
61398;DHT22;47267;48.130;-2.040;2022-10-15T02:26:41;20.20;69.80
61398;DHT22;47267;48.130;-2.040;2022-10-15T02:29:11;20.20;69.70
61398;DHT22;47267;48.130;-2.040;2022-10-15T02:31:40;20.20;69.80
61398;DHT22;47267;48.130;-2.040;2022-10-15T02:34:09;20.20;69.80
61398;DHT22;47267;48.130;-2.040;2022-10-15T02:36:39;20.20;69.80
61398;DHT22;47267;48.130;-2.040;2022-10-15T02:39:06;20.10;69.70
61398;DHT22;47267;48.130;-2.040;2022-10-15T02:41:34;20.20;69.80
61398;DHT22;47267;48.130;-2.040;2022-10-15T02:44:01;20.10;69.70
61398;DHT22;47267;48.130;-2.040;2022-10-15T02:46:27;20.10;69.80
61398;DHT22;47267;48.130;-2.040;2022-10-15T02:48:53;20.10;69.70
61398;DHT22;47267;48.130;-2.040;2022-10-15T02:51:18;20.10;69.70
61398;DHT22;47267;48.130;-2.040;2022-10-15T02:53:44;20.10;69.70
61398;DHT22;47267;48.130;-2.040;2022-10-15T02:56:10;20.10;69.80
61398;DHT22;47267;48.130;-2.040;2022-10-15T02:58:35;20.20;69.80
61398;DHT22;47267;48.130;-2.040;2022-10-15T03:01:01;20.10;69.80
61398;DHT22;47267;48.130;-2.040;2022-10-15T03:03:27;20.20;69.80
61398;DHT22;47267;48.130;-2.040;2022-10-15T03:05:53;20.10;69.80
61398;DHT22;47267;48.130;-2.040;2022-10-15T03:08:18;20.10;69.80
61398;DHT22;47267;48.130;-2.040;2022-10-15T03:10:44;20.20;69.80
61398;DHT22;47267;48.130;-2.040;2022-10-15T03:13:11;20.10;69.80
61398;DHT22;47267;48.130;-2.040;2022-10-15T03:15:36;20.10;69.80
61398;DHT22;47267;48.130;-2.040;2022-10-15T03:18:03;20.10;69.80
61398;DHT22;47267;48.130;-2.040;2022-10-15T03:20:29;20.20;69.90
61398;DHT22;47267;48.130;-2.040;2022-10-15T03:22:54;20.10;69.80
61398;DHT22;47267;48.130;-2.040;2022-10-15T03:25:20;20.10;69.80
61398;DHT22;47267;48.130;-2.040;2022-10-15T03:27:46;20.10;69.80
61398;DHT22;47267;48.130;-2.040;2022-10-15T03:30:12;20.10;69.80
61398;DHT22;47267;48.130;-2.040;2022-10-15T03:32:38;20.10;69.80
61398;DHT22;47267;48.130;-2.040;2022-10-15T03:35:04;20.10;69.80
61398;DHT22;47267;48.130;-2.040;2022-10-15T03:37:30;20.10;69.80
61398;DHT22;47267;48.130;-2.040;2022-10-15T03:39:55;20.10;69.90
61398;DHT22;47267;48.130;-2.040;2022-10-15T03:42:21;20.10;69.80
61398;DHT22;47267;48.130;-2.040;2022-10-15T03:44:47;20.10;69.90
61398;DHT22;47267;48.130;-2.040;2022-10-15T03:47:12;20.10;69.90
61398;DHT22;47267;48.130;-2.040;2022-10-15T03:49:38;20.10;69.80
61398;DHT22;47267;48.130;-2.040;2022-10-15T03:52:04;20.10;69.80
61398;DHT22;47267;48.130;-2.040;2022-10-15T03:54:29;20.10;69.80
61398;DHT22;47267;48.130;-2.040;2022-10-15T03:56:55;20.10;69.90
61398;DHT22;47267;48.130;-2.040;2022-10-15T03:59:21;20.10;69.90
61398;DHT22;47267;48.130;-2.040;2022-10-15T04:01:47;20.10;69.80
61398;DHT22;47267;48.130;-2.040;2022-10-15T04:04:12;20.00;69.80
61398;DHT22;47267;48.130;-2.040;2022-10-15T04:06:39;20.10;69.90
61398;DHT22;47267;48.130;-2.040;2022-10-15T04:09:05;20.10;69.80
61398;DHT22;47267;48.130;-2.040;2022-10-15T04:11:30;20.10;69.90
61398;DHT22;47267;48.130;-2.040;2022-10-15T04:13:56;20.10;69.90
61398;DHT22;47267;48.130;-2.040;2022-10-15T04:16:22;20.10;69.90
61398;DHT22;47267;48.130;-2.040;2022-10-15T04:18:47;20.00;69.80
61398;DHT22;47267;48.130;-2.040;2022-10-15T04:21:13;20.00;69.80
61398;DHT22;47267;48.130;-2.040;2022-10-15T04:23:39;20.00;69.90
61398;DHT22;47267;48.130;-2.040;2022-10-15T04:26:05;20.00;69.80
61398;DHT22;47267;48.130;-2.040;2022-10-15T04:28:31;20.00;69.80
61398;DHT22;47267;48.130;-2.040;2022-10-15T04:30:58;20.00;69.80
61398;DHT22;47267;48.130;-2.040;2022-10-15T04:33:25;20.00;70.40
61398;DHT22;47267;48.130;-2.040;2022-10-15T04:35:59;20.00;69.80
61398;DHT22;47267;48.130;-2.040;2022-10-15T04:38:25;20.00;69.80
61398;DHT22;47267;48.130;-2.040;2022-10-15T04:41:04;20.00;69.90
61398;DHT22;47267;48.130;-2.040;2022-10-15T04:43:31;20.00;69.90
61398;DHT22;47267;48.130;-2.040;2022-10-15T04:46:01;20.00;69.90
61398;DHT22;47267;48.130;-2.040;2022-10-15T04:48:28;20.00;69.90
61398;DHT22;47267;48.130;-2.040;2022-10-15T04:50:54;20.00;69.90
61398;DHT22;47267;48.130;-2.040;2022-10-15T04:53:20;20.00;69.80
61398;DHT22;47267;48.130;-2.040;2022-10-15T04:55:46;20.00;69.90
61398;DHT22;47267;48.130;-2.040;2022-10-15T04:58:12;20.00;69.90
61398;DHT22;47267;48.130;-2.040;2022-10-15T05:00:38;20.00;69.90
61398;DHT22;47267;48.130;-2.040;2022-10-15T05:03:05;20.00;69.80
61398;DHT22;47267;48.130;-2.040;2022-10-15T05:05:31;20.00;69.90
61398;DHT22;47267;48.130;-2.040;2022-10-15T05:08:04;20.00;69.90
61398;DHT22;47267;48.130;-2.040;2022-10-15T05:10:30;20.00;69.90
61398;DHT22;47267;48.130;-2.040;2022-10-15T05:12:56;20.00;69.90
61398;DHT22;47267;48.130;-2.040;2022-10-15T05:15:21;20.00;69.90
61398;DHT22;47267;48.130;-2.040;2022-10-15T05:17:47;20.00;69.90
61398;DHT22;47267;48.130;-2.040;2022-10-15T05:20:13;19.90;69.80
61398;DHT22;47267;48.130;-2.040;2022-10-15T05:22:38;20.00;69.90
61398;DHT22;47267;48.130;-2.040;2022-10-15T05:25:05;19.90;69.80
61398;DHT22;47267;48.130;-2.040;2022-10-15T05:27:30;19.90;69.80
61398;DHT22;47267;48.130;-2.040;2022-10-15T05:29:56;19.90;69.80
61398;DHT22;47267;48.130;-2.040;2022-10-15T05:32:22;19.90;69.80
61398;DHT22;47267;48.130;-2.040;2022-10-15T05:34:48;19.90;69.80
61398;DHT22;47267;48.130;-2.040;2022-10-15T05:37:13;19.90;69.80
61398;DHT22;47267;48.130;-2.040;2022-10-15T05:39:39;19.90;69.80
61398;DHT22;47267;48.130;-2.040;2022-10-15T05:42:05;19.90;69.80
61398;DHT22;47267;48.130;-2.040;2022-10-15T05:44:30;20.00;69.90
61398;DHT22;47267;48.130;-2.040;2022-10-15T05:46:56;19.90;69.80
61398;DHT22;47267;48.130;-2.040;2022-10-15T05:49:22;19.90;69.80
61398;DHT22;47267;48.130;-2.040;2022-10-15T05:51:47;19.90;69.80
61398;DHT22;47267;48.130;-2.040;2022-10-15T05:54:13;19.90;69.80
61398;DHT22;47267;48.130;-2.040;2022-10-15T05:56:39;19.90;69.80
61398;DHT22;47267;48.130;-2.040;2022-10-15T05:59:05;19.90;69.80
61398;DHT22;47267;48.130;-2.040;2022-10-15T06:01:30;19.90;69.80
61398;DHT22;47267;48.130;-2.040;2022-10-15T06:03:56;19.90;69.80
61398;DHT22;47267;48.130;-2.040;2022-10-15T06:06:24;19.90;69.80
61398;DHT22;47267;48.130;-2.040;2022-10-15T06:08:51;19.90;69.80
61398;DHT22;47267;48.130;-2.040;2022-10-15T06:11:18;19.90;69.80
61398;DHT22;47267;48.130;-2.040;2022-10-15T06:13:44;19.90;69.80
61398;DHT22;47267;48.130;-2.040;2022-10-15T06:16:11;19.90;69.80
61398;DHT22;47267;48.130;-2.040;2022-10-15T06:18:37;19.90;69.80
61398;DHT22;47267;48.130;-2.040;2022-10-15T06:21:04;19.80;69.80
61398;DHT22;47267;48.130;-2.040;2022-10-15T06:23:30;19.90;69.80
61398;DHT22;47267;48.130;-2.040;2022-10-15T06:26:00;19.90;69.80
61398;DHT22;47267;48.130;-2.040;2022-10-15T06:28:25;19.90;69.80
61398;DHT22;47267;48.130;-2.040;2022-10-15T06:30:51;19.80;69.80
61398;DHT22;47267;48.130;-2.040;2022-10-15T06:33:17;19.80;69.80
61398;DHT22;47267;48.130;-2.040;2022-10-15T06:35:43;19.80;69.80
61398;DHT22;47267;48.130;-2.040;2022-10-15T06:38:09;19.80;69.80
61398;DHT22;47267;48.130;-2.040;2022-10-15T06:40:35;19.80;69.80
61398;DHT22;47267;48.130;-2.040;2022-10-15T06:43:05;19.80;69.80
61398;DHT22;47267;48.130;-2.040;2022-10-15T06:45:32;19.80;69.80
61398;DHT22;47267;48.130;-2.040;2022-10-15T06:47:58;19.80;69.80
61398;DHT22;47267;48.130;-2.040;2022-10-15T06:50:24;19.80;69.80
61398;DHT22;47267;48.130;-2.040;2022-10-15T06:52:49;19.80;69.80
61398;DHT22;47267;48.130;-2.040;2022-10-15T06:55:15;19.80;69.80
61398;DHT22;47267;48.130;-2.040;2022-10-15T06:57:41;19.80;69.80
61398;DHT22;47267;48.130;-2.040;2022-10-15T07:00:07;19.80;69.80
61398;DHT22;47267;48.130;-2.040;2022-10-15T07:02:34;19.80;69.80
61398;DHT22;47267;48.130;-2.040;2022-10-15T07:05:00;19.80;69.80
61398;DHT22;47267;48.130;-2.040;2022-10-15T07:07:26;19.80;69.80
61398;DHT22;47267;48.130;-2.040;2022-10-15T07:09:52;19.80;69.80
61398;DHT22;47267;48.130;-2.040;2022-10-15T07:12:19;19.80;69.80
61398;DHT22;47267;48.130;-2.040;2022-10-15T07:14:47;19.80;69.80
61398;DHT22;47267;48.130;-2.040;2022-10-15T07:17:14;19.80;69.80
61398;DHT22;47267;48.130;-2.040;2022-10-15T07:19:40;19.80;69.80
61398;DHT22;47267;48.130;-2.040;2022-10-15T07:22:06;19.80;69.80
61398;DHT22;47267;48.130;-2.040;2022-10-15T07:24:31;19.70;69.70
61398;DHT22;47267;48.130;-2.040;2022-10-15T07:26:57;19.80;69.80
61398;DHT22;47267;48.130;-2.040;2022-10-15T07:29:23;19.80;69.80
61398;DHT22;47267;48.130;-2.040;2022-10-15T07:31:48;19.80;69.80
61398;DHT22;47267;48.130;-2.040;2022-10-15T07:34:15;19.70;69.70
61398;DHT22;47267;48.130;-2.040;2022-10-15T07:36:41;19.70;69.70
61398;DHT22;47267;48.130;-2.040;2022-10-15T07:39:08;19.70;70.10
61398;DHT22;47267;48.130;-2.040;2022-10-15T07:41:34;19.80;70.50
61398;DHT22;47267;48.130;-2.040;2022-10-15T07:43:59;19.80;70.20
61398;DHT22;47267;48.130;-2.040;2022-10-15T07:46:26;19.80;70.30
61398;DHT22;47267;48.130;-2.040;2022-10-15T07:48:51;19.80;70.40
61398;DHT22;47267;48.130;-2.040;2022-10-15T07:51:17;19.80;70.60
61398;DHT22;47267;48.130;-2.040;2022-10-15T07:53:43;19.80;70.40
61398;DHT22;47267;48.130;-2.040;2022-10-15T07:56:10;19.80;70.30
61398;DHT22;47267;48.130;-2.040;2022-10-15T07:58:37;19.80;70.50
61398;DHT22;47267;48.130;-2.040;2022-10-15T08:01:07;19.80;70.30
61398;DHT22;47267;48.130;-2.040;2022-10-15T08:03:34;19.80;70.30
61398;DHT22;47267;48.130;-2.040;2022-10-15T08:06:00;19.80;70.30
61398;DHT22;47267;48.130;-2.040;2022-10-15T08:08:26;19.80;70.20
61398;DHT22;47267;48.130;-2.040;2022-10-15T08:10:52;19.80;70.20
61398;DHT22;47267;48.130;-2.040;2022-10-15T08:13:18;19.80;70.20
61398;DHT22;47267;48.130;-2.040;2022-10-15T08:15:44;19.80;70.20
61398;DHT22;47267;48.130;-2.040;2022-10-15T08:18:10;19.80;70.20
61398;DHT22;47267;48.130;-2.040;2022-10-15T08:20:36;19.80;70.10
61398;DHT22;47267;48.130;-2.040;2022-10-15T08:23:02;19.80;70.10
61398;DHT22;47267;48.130;-2.040;2022-10-15T08:25:28;19.80;70.10
61398;DHT22;47267;48.130;-2.040;2022-10-15T08:27:56;19.80;70.10
61398;DHT22;47267;48.130;-2.040;2022-10-15T08:30:22;19.80;70.10
61398;DHT22;47267;48.130;-2.040;2022-10-15T08:32:47;19.80;70.10
61398;DHT22;47267;48.130;-2.040;2022-10-15T08:35:13;19.80;70.10
61398;DHT22;47267;48.130;-2.040;2022-10-15T08:37:39;19.80;70.10
61398;DHT22;47267;48.130;-2.040;2022-10-15T08:40:05;19.80;70.10
61398;DHT22;47267;48.130;-2.040;2022-10-15T08:42:37;19.80;70.10
61398;DHT22;47267;48.130;-2.040;2022-10-15T08:47:47;19.80;70.00
61398;DHT22;47267;48.130;-2.040;2022-10-15T08:52:53;19.80;70.00
61398;DHT22;47267;48.130;-2.040;2022-10-15T08:55:21;19.80;70.00
61398;DHT22;47267;48.130;-2.040;2022-10-15T09:00:22;19.80;70.00
61398;DHT22;47267;48.130;-2.040;2022-10-15T09:06:11;19.80;70.00
61398;DHT22;47267;48.130;-2.040;2022-10-15T09:11:44;19.80;70.00
61398;DHT22;47267;48.130;-2.040;2022-10-15T09:14:17;19.80;70.00
61398;DHT22;47267;48.130;-2.040;2022-10-15T09:16:46;19.80;69.90
61398;DHT22;47267;48.130;-2.040;2022-10-15T09:19:21;19.80;70.00
61398;DHT22;47267;48.130;-2.040;2022-10-15T09:21:49;19.80;69.90
61398;DHT22;47267;48.130;-2.040;2022-10-15T09:24:21;19.80;69.90
61398;DHT22;47267;48.130;-2.040;2022-10-15T09:30:03;19.70;69.90
61398;DHT22;47267;48.130;-2.040;2022-10-15T09:35:29;19.70;69.80
61398;DHT22;47267;48.130;-2.040;2022-10-15T09:43:44;19.80;69.90
61398;DHT22;47267;48.130;-2.040;2022-10-15T09:46:11;19.70;69.90
61398;DHT22;47267;48.130;-2.040;2022-10-15T09:49:07;19.70;69.80
61398;DHT22;47267;48.130;-2.040;2022-10-15T09:54:41;19.70;69.80
61398;DHT22;47267;48.130;-2.040;2022-10-15T09:57:11;19.70;69.90
61398;DHT22;47267;48.130;-2.040;2022-10-15T09:59:54;19.70;69.80
61398;DHT22;47267;48.130;-2.040;2022-10-15T10:02:23;19.70;69.90
61398;DHT22;47267;48.130;-2.040;2022-10-15T10:04:49;19.70;69.80
61398;DHT22;47267;48.130;-2.040;2022-10-15T10:09:58;19.70;69.80
61398;DHT22;47267;48.130;-2.040;2022-10-15T10:12:31;19.70;69.80
61398;DHT22;47267;48.130;-2.040;2022-10-15T10:15:03;19.70;69.90
61398;DHT22;47267;48.130;-2.040;2022-10-15T10:17:30;19.70;69.90
61398;DHT22;47267;48.130;-2.040;2022-10-15T10:25:30;19.70;69.90
61398;DHT22;47267;48.130;-2.040;2022-10-15T10:33:23;19.70;69.90
61398;DHT22;47267;48.130;-2.040;2022-10-15T10:35:50;19.70;69.90
61398;DHT22;47267;48.130;-2.040;2022-10-15T10:41:01;19.70;70.00
61398;DHT22;47267;48.130;-2.040;2022-10-15T10:43:32;19.70;69.90
61398;DHT22;47267;48.130;-2.040;2022-10-15T10:48:41;19.70;70.00
61398;DHT22;47267;48.130;-2.040;2022-10-15T10:51:23;19.70;70.00
61398;DHT22;47267;48.130;-2.040;2022-10-15T10:53:50;19.70;70.50
61398;DHT22;47267;48.130;-2.040;2022-10-15T10:56:24;19.70;70.00
61398;DHT22;47267;48.130;-2.040;2022-10-15T10:58:56;19.70;70.00
61398;DHT22;47267;48.130;-2.040;2022-10-15T11:01:22;19.70;70.00
61398;DHT22;47267;48.130;-2.040;2022-10-15T11:03:48;19.70;70.60
61398;DHT22;47267;48.130;-2.040;2022-10-15T11:06:36;19.70;70.00
61398;DHT22;47267;48.130;-2.040;2022-10-15T11:14:53;19.70;70.00
61398;DHT22;47267;48.130;-2.040;2022-10-15T11:17:27;19.70;70.00
61398;DHT22;47267;48.130;-2.040;2022-10-15T11:25:50;19.70;70.00
61398;DHT22;47267;48.130;-2.040;2022-10-15T11:34:13;19.70;70.00
61398;DHT22;47267;48.130;-2.040;2022-10-15T11:37:21;19.70;70.00
61398;DHT22;47267;48.130;-2.040;2022-10-15T11:43:02;19.70;70.00
61398;DHT22;47267;48.130;-2.040;2022-10-15T11:46:32;19.70;70.00
61398;DHT22;47267;48.130;-2.040;2022-10-15T11:51:33;19.70;70.10
61398;DHT22;47267;48.130;-2.040;2022-10-15T11:56:36;19.70;70.00
61398;DHT22;47267;48.130;-2.040;2022-10-15T11:59:42;19.70;70.00
61398;DHT22;47267;48.130;-2.040;2022-10-15T12:02:18;19.70;70.00
61398;DHT22;47267;48.130;-2.040;2022-10-15T12:04:49;19.70;70.10
61398;DHT22;47267;48.130;-2.040;2022-10-15T12:07:43;19.70;70.10
61398;DHT22;47267;48.130;-2.040;2022-10-15T12:13:11;19.70;70.10
61398;DHT22;47267;48.130;-2.040;2022-10-15T12:15:53;19.70;70.10
61398;DHT22;47267;48.130;-2.040;2022-10-15T12:20:58;19.70;70.10
61398;DHT22;47267;48.130;-2.040;2022-10-15T12:26:26;19.80;70.20
61398;DHT22;47267;48.130;-2.040;2022-10-15T12:28:54;19.80;70.20
61398;DHT22;47267;48.130;-2.040;2022-10-15T12:31:21;19.80;70.20
61398;DHT22;47267;48.130;-2.040;2022-10-15T12:33:50;19.70;70.20
61398;DHT22;47267;48.130;-2.040;2022-10-15T12:36:25;19.80;70.30
61398;DHT22;47267;48.130;-2.040;2022-10-15T12:39:06;19.80;70.20
61398;DHT22;47267;48.130;-2.040;2022-10-15T12:41:41;19.80;70.20
61398;DHT22;47267;48.130;-2.040;2022-10-15T12:46:45;19.80;70.20
61398;DHT22;47267;48.130;-2.040;2022-10-15T12:52:00;19.80;70.20
61398;DHT22;47267;48.130;-2.040;2022-10-15T13:02:47;19.80;70.20
61398;DHT22;47267;48.130;-2.040;2022-10-15T13:05:31;19.80;70.20
61398;DHT22;47267;48.130;-2.040;2022-10-15T13:07:59;19.80;70.20
61398;DHT22;47267;48.130;-2.040;2022-10-15T13:10:39;19.80;70.20
61398;DHT22;47267;48.130;-2.040;2022-10-15T13:13:21;19.80;70.20
61398;DHT22;47267;48.130;-2.040;2022-10-15T13:15:56;19.80;70.30
61398;DHT22;47267;48.130;-2.040;2022-10-15T13:18:22;19.90;70.30
61398;DHT22;47267;48.130;-2.040;2022-10-15T13:20:50;19.90;70.30
61398;DHT22;47267;48.130;-2.040;2022-10-15T13:23:28;19.90;70.30
61398;DHT22;47267;48.130;-2.040;2022-10-15T13:26:17;19.90;70.30
61398;DHT22;47267;48.130;-2.040;2022-10-15T13:28:44;19.90;70.30
61398;DHT22;47267;48.130;-2.040;2022-10-15T13:31:25;19.90;70.30
61398;DHT22;47267;48.130;-2.040;2022-10-15T13:33:57;19.90;70.30
61398;DHT22;47267;48.130;-2.040;2022-10-15T13:36:28;19.90;70.30
61398;DHT22;47267;48.130;-2.040;2022-10-15T13:39:06;19.90;70.30
61398;DHT22;47267;48.130;-2.040;2022-10-15T13:41:35;19.90;70.30
61398;DHT22;47267;48.130;-2.040;2022-10-15T13:44:02;19.90;70.30
61398;DHT22;47267;48.130;-2.040;2022-10-15T13:46:37;19.90;70.30
61398;DHT22;47267;48.130;-2.040;2022-10-15T13:49:11;20.00;70.30
61398;DHT22;47267;48.130;-2.040;2022-10-15T13:51:42;19.90;70.30
61398;DHT22;47267;48.130;-2.040;2022-10-15T13:54:15;20.00;70.30
61398;DHT22;47267;48.130;-2.040;2022-10-15T13:56:43;20.00;70.30
61398;DHT22;47267;48.130;-2.040;2022-10-15T13:59:18;20.00;70.30
61398;DHT22;47267;48.130;-2.040;2022-10-15T14:01:51;20.00;70.30
61398;DHT22;47267;48.130;-2.040;2022-10-15T14:04:21;20.00;70.30
61398;DHT22;47267;48.130;-2.040;2022-10-15T14:07:01;20.00;70.20
61398;DHT22;47267;48.130;-2.040;2022-10-15T14:09:31;20.00;70.20
61398;DHT22;47267;48.130;-2.040;2022-10-15T14:11:58;20.00;70.20
61398;DHT22;47267;48.130;-2.040;2022-10-15T14:16:55;20.00;70.20
61398;DHT22;47267;48.130;-2.040;2022-10-15T14:19:23;20.10;70.20
61398;DHT22;47267;48.130;-2.040;2022-10-15T14:21:55;20.10;70.20
61398;DHT22;47267;48.130;-2.040;2022-10-15T14:24:33;20.10;70.20
61398;DHT22;47267;48.130;-2.040;2022-10-15T14:27:06;20.10;70.20
61398;DHT22;47267;48.130;-2.040;2022-10-15T14:29:39;20.10;70.20
61398;DHT22;47267;48.130;-2.040;2022-10-15T14:32:25;20.10;70.20
61398;DHT22;47267;48.130;-2.040;2022-10-15T14:34:55;20.10;70.20
61398;DHT22;47267;48.130;-2.040;2022-10-15T14:37:40;20.10;70.20
61398;DHT22;47267;48.130;-2.040;2022-10-15T14:40:13;20.10;70.20
61398;DHT22;47267;48.130;-2.040;2022-10-15T14:42:42;20.10;70.10
61398;DHT22;47267;48.130;-2.040;2022-10-15T14:47:37;20.20;70.20
61398;DHT22;47267;48.130;-2.040;2022-10-15T14:50:04;20.20;70.10
61398;DHT22;47267;48.130;-2.040;2022-10-15T14:52:30;20.20;70.10
61398;DHT22;47267;48.130;-2.040;2022-10-15T14:57:42;20.20;70.10
61398;DHT22;47267;48.130;-2.040;2022-10-15T15:00:33;20.20;70.10
61398;DHT22;47267;48.130;-2.040;2022-10-15T15:03:03;20.20;70.10
61398;DHT22;47267;48.130;-2.040;2022-10-15T15:05:29;20.20;70.00
61398;DHT22;47267;48.130;-2.040;2022-10-15T15:07:56;20.20;70.00
61398;DHT22;47267;48.130;-2.040;2022-10-15T15:10:23;20.30;70.10
61398;DHT22;47267;48.130;-2.040;2022-10-15T15:12:52;20.20;70.00
61398;DHT22;47267;48.130;-2.040;2022-10-15T15:15:20;20.30;70.00
61398;DHT22;47267;48.130;-2.040;2022-10-15T15:17:47;20.30;70.00
61398;DHT22;47267;48.130;-2.040;2022-10-15T15:20:14;20.30;70.00
61398;DHT22;47267;48.130;-2.040;2022-10-15T15:22:40;20.30;70.00
61398;DHT22;47267;48.130;-2.040;2022-10-15T15:25:34;20.30;69.90
61398;DHT22;47267;48.130;-2.040;2022-10-15T15:28:00;20.30;69.90
61398;DHT22;47267;48.130;-2.040;2022-10-15T15:30:28;20.30;69.90
61398;DHT22;47267;48.130;-2.040;2022-10-15T15:32:54;20.40;69.90
61398;DHT22;47267;48.130;-2.040;2022-10-15T15:37:49;20.30;69.80
61398;DHT22;47267;48.130;-2.040;2022-10-15T15:40:15;20.40;69.80
61398;DHT22;47267;48.130;-2.040;2022-10-15T15:42:41;20.40;69.80
61398;DHT22;47267;48.130;-2.040;2022-10-15T15:45:23;20.40;69.80
61398;DHT22;47267;48.130;-2.040;2022-10-15T15:47:49;20.40;69.80
61398;DHT22;47267;48.130;-2.040;2022-10-15T15:50:17;20.40;69.80
61398;DHT22;47267;48.130;-2.040;2022-10-15T15:52:43;20.40;69.70
61398;DHT22;47267;48.130;-2.040;2022-10-15T15:55:10;20.40;69.70
61398;DHT22;47267;48.130;-2.040;2022-10-15T15:57:36;20.40;69.70
61398;DHT22;47267;48.130;-2.040;2022-10-15T16:00:04;20.40;69.70
61398;DHT22;47267;48.130;-2.040;2022-10-15T16:02:30;20.40;69.70
61398;DHT22;47267;48.130;-2.040;2022-10-15T16:04:56;20.50;69.70
61398;DHT22;47267;48.130;-2.040;2022-10-15T16:07:22;20.50;69.70
61398;DHT22;47267;48.130;-2.040;2022-10-15T16:09:47;20.50;69.70
61398;DHT22;47267;48.130;-2.040;2022-10-15T16:12:13;20.40;69.60
61398;DHT22;47267;48.130;-2.040;2022-10-15T16:14:39;20.50;69.60
61398;DHT22;47267;48.130;-2.040;2022-10-15T16:17:05;20.50;69.60
61398;DHT22;47267;48.130;-2.040;2022-10-15T16:19:30;20.50;69.60
61398;DHT22;47267;48.130;-2.040;2022-10-15T16:21:56;20.50;69.60
61398;DHT22;47267;48.130;-2.040;2022-10-15T16:24:22;20.50;69.60
61398;DHT22;47267;48.130;-2.040;2022-10-15T16:26:47;20.50;69.60
61398;DHT22;47267;48.130;-2.040;2022-10-15T16:29:13;20.50;69.50
61398;DHT22;47267;48.130;-2.040;2022-10-15T16:31:41;20.50;69.50
61398;DHT22;47267;48.130;-2.040;2022-10-15T16:34:07;20.50;69.50
61398;DHT22;47267;48.130;-2.040;2022-10-15T16:36:33;20.50;69.50
61398;DHT22;47267;48.130;-2.040;2022-10-15T16:39:00;20.50;69.50
61398;DHT22;47267;48.130;-2.040;2022-10-15T16:41:26;20.50;69.50
61398;DHT22;47267;48.130;-2.040;2022-10-15T16:43:52;20.50;69.40
61398;DHT22;47267;48.130;-2.040;2022-10-15T16:46:18;20.50;69.40
61398;DHT22;47267;48.130;-2.040;2022-10-15T16:48:44;20.50;69.40
61398;DHT22;47267;48.130;-2.040;2022-10-15T16:51:12;20.50;69.40
61398;DHT22;47267;48.130;-2.040;2022-10-15T16:53:39;20.50;69.40
61398;DHT22;47267;48.130;-2.040;2022-10-15T16:58:33;20.50;69.30
61398;DHT22;47267;48.130;-2.040;2022-10-15T17:00:59;20.50;69.30
61398;DHT22;47267;48.130;-2.040;2022-10-15T17:03:25;20.50;69.30
61398;DHT22;47267;48.130;-2.040;2022-10-15T17:05:56;20.50;69.30
61398;DHT22;47267;48.130;-2.040;2022-10-15T17:08:22;20.50;69.30
61398;DHT22;47267;48.130;-2.040;2022-10-15T17:10:50;20.50;69.30
61398;DHT22;47267;48.130;-2.040;2022-10-15T17:13:16;20.50;69.30
61398;DHT22;47267;48.130;-2.040;2022-10-15T17:15:42;20.50;69.30
61398;DHT22;47267;48.130;-2.040;2022-10-15T17:18:07;20.50;69.40
61398;DHT22;47267;48.130;-2.040;2022-10-15T17:20:33;20.50;69.40
61398;DHT22;47267;48.130;-2.040;2022-10-15T17:22:59;20.60;69.40
61398;DHT22;47267;48.130;-2.040;2022-10-15T17:25:25;20.50;69.30
61398;DHT22;47267;48.130;-2.040;2022-10-15T17:27:54;20.50;69.90
61398;DHT22;47267;48.130;-2.040;2022-10-15T17:30:19;20.50;69.40
61398;DHT22;47267;48.130;-2.040;2022-10-15T17:32:47;20.50;69.40
61398;DHT22;47267;48.130;-2.040;2022-10-15T17:35:13;20.50;69.40
61398;DHT22;47267;48.130;-2.040;2022-10-15T17:37:39;20.60;69.40
61398;DHT22;47267;48.130;-2.040;2022-10-15T17:40:05;20.60;69.40
61398;DHT22;47267;48.130;-2.040;2022-10-15T17:42:31;20.60;69.40
61398;DHT22;47267;48.130;-2.040;2022-10-15T17:44:57;20.60;69.40
61398;DHT22;47267;48.130;-2.040;2022-10-15T17:47:22;20.60;69.40
61398;DHT22;47267;48.130;-2.040;2022-10-15T17:49:48;20.60;69.40
61398;DHT22;47267;48.130;-2.040;2022-10-15T17:52:14;20.60;69.40
61398;DHT22;47267;48.130;-2.040;2022-10-15T17:54:40;20.60;69.40
61398;DHT22;47267;48.130;-2.040;2022-10-15T17:57:05;20.60;69.40
61398;DHT22;47267;48.130;-2.040;2022-10-15T17:59:31;20.50;69.40